sensor_id;sensor_type;location;lat;lon;timestamp;P1;durP1;ratioP1;P2;durP2;ratioP2
69047;SDS011;56119;50.118;8.642;2024-01-30T13:45:44;19.77;;;16.50;;
69047;SDS011;56119;50.118;8.642;2024-01-30T13:48:11;21.02;;;18.00;;
69047;SDS011;56119;50.118;8.642;2024-01-30T13:50:37;20.80;;;18.63;;
69047;SDS011;56119;50.118;8.642;2024-01-30T13:53:03;21.98;;;19.00;;
69047;SDS011;56119;50.118;8.642;2024-01-30T13:55:29;20.30;;;17.90;;
69047;SDS011;56119;50.118;8.642;2024-01-30T13:57:55;29.27;;;21.35;;
69047;SDS011;56119;50.118;8.642;2024-01-30T14:00:22;25.90;;;20.73;;
69047;SDS011;56119;50.118;8.642;2024-01-30T14:02:48;22.52;;;19.88;;
69047;SDS011;56119;50.118;8.642;2024-01-30T14:05:14;23.58;;;19.08;;
69047;SDS011;56119;50.118;8.642;2024-01-30T14:07:40;24.60;;;21.55;;
69047;SDS011;56119;50.118;8.642;2024-01-30T14:10:09;24.55;;;20.25;;
69047;SDS011;56119;50.118;8.642;2024-01-30T14:12:36;23.63;;;20.95;;
69047;SDS011;56119;50.118;8.642;2024-01-30T14:15:02;26.25;;;21.00;;
69047;SDS011;56119;50.118;8.642;2024-01-30T14:17:28;24.70;;;21.30;;
69047;SDS011;56119;50.118;8.642;2024-01-30T14:19:54;26.38;;;22.17;;
69047;SDS011;56119;50.118;8.642;2024-01-30T14:22:20;28.77;;;21.95;;
69047;SDS011;56119;50.118;8.642;2024-01-30T14:24:46;23.67;;;21.10;;
69047;SDS011;56119;50.118;8.642;2024-01-30T14:27:12;24.98;;;22.17;;
69047;SDS011;56119;50.118;8.642;2024-01-30T14:29:39;25.23;;;20.85;;
69047;SDS011;56119;50.118;8.642;2024-01-30T14:32:06;26.48;;;22.20;;
69047;SDS011;56119;50.118;8.642;2024-01-30T14:34:32;27.42;;;22.63;;
69047;SDS011;56119;50.118;8.642;2024-01-30T14:36:58;27.70;;;22.63;;
69047;SDS011;56119;50.118;8.642;2024-01-30T14:39:24;29.77;;;22.63;;
69047;SDS011;56119;50.118;8.642;2024-01-30T14:41:50;28.38;;;22.27;;
69047;SDS011;56119;50.118;8.642;2024-01-30T14:44:18;25.50;;;22.40;;
69047;SDS011;56119;50.118;8.642;2024-01-30T14:46:44;28.98;;;23.52;;
69047;SDS011;56119;50.118;8.642;2024-01-30T14:49:10;29.65;;;23.75;;
69047;SDS011;56119;50.118;8.642;2024-01-30T14:51:36;29.02;;;22.85;;
69047;SDS011;56119;50.118;8.642;2024-01-30T14:54:02;29.63;;;22.13;;
69047;SDS011;56119;50.118;8.642;2024-01-30T14:56:29;29.33;;;22.80;;
69047;SDS011;56119;50.118;8.642;2024-01-30T14:58:55;25.30;;;21.95;;
69047;SDS011;56119;50.118;8.642;2024-01-30T15:01:21;24.15;;;20.13;;
69047;SDS011;56119;50.118;8.642;2024-01-30T15:03:47;24.58;;;21.92;;
69047;SDS011;56119;50.118;8.642;2024-01-30T15:06:13;27.58;;;23.02;;
69047;SDS011;56119;50.118;8.642;2024-01-30T15:08:39;28.13;;;22.00;;
69047;SDS011;56119;50.118;8.642;2024-01-30T15:11:05;29.45;;;22.83;;
69047;SDS011;56119;50.118;8.642;2024-01-30T15:13:31;27.88;;;22.67;;
69047;SDS011;56119;50.118;8.642;2024-01-30T15:15:58;30.10;;;24.17;;
69047;SDS011;56119;50.118;8.642;2024-01-30T15:18:24;27.73;;;22.30;;
69047;SDS011;56119;50.118;8.642;2024-01-30T15:20:50;25.02;;;22.33;;
69047;SDS011;56119;50.118;8.642;2024-01-30T15:23:16;28.50;;;24.42;;
69047;SDS011;56119;50.118;8.642;2024-01-30T15:25:42;29.83;;;23.77;;
69047;SDS011;56119;50.118;8.642;2024-01-30T15:28:08;30.25;;;22.70;;
69047;SDS011;56119;50.118;8.642;2024-01-30T15:30:35;29.70;;;24.73;;
69047;SDS011;56119;50.118;8.642;2024-01-30T15:33:01;29.77;;;24.58;;
69047;SDS011;56119;50.118;8.642;2024-01-30T15:35:27;26.35;;;21.83;;
69047;SDS011;56119;50.118;8.642;2024-01-30T15:37:53;26.70;;;23.02;;
69047;SDS011;56119;50.118;8.642;2024-01-30T15:40:19;27.63;;;23.13;;
69047;SDS011;56119;50.118;8.642;2024-01-30T15:42:45;32.25;;;24.05;;
69047;SDS011;56119;50.118;8.642;2024-01-30T15:45:11;29.27;;;24.90;;
69047;SDS011;56119;50.118;8.642;2024-01-30T15:47:37;27.75;;;24.75;;
69047;SDS011;56119;50.118;8.642;2024-01-30T15:50:04;30.63;;;24.23;;
69047;SDS011;56119;50.118;8.642;2024-01-30T15:52:30;30.70;;;24.58;;
69047;SDS011;56119;50.118;8.642;2024-01-30T15:54:56;30.73;;;25.33;;
69047;SDS011;56119;50.118;8.642;2024-01-30T15:57:22;28.92;;;24.77;;
69047;SDS011;56119;50.118;8.642;2024-01-30T15:59:48;34.78;;;26.55;;
69047;SDS011;56119;50.118;8.642;2024-01-30T16:02:14;29.60;;;24.88;;
69047;SDS011;56119;50.118;8.642;2024-01-30T16:04:40;28.92;;;25.60;;
69047;SDS011;56119;50.118;8.642;2024-01-30T16:07:06;32.78;;;24.83;;
69047;SDS011;56119;50.118;8.642;2024-01-30T16:09:32;30.23;;;25.25;;
69047;SDS011;56119;50.118;8.642;2024-01-30T16:11:58;32.58;;;25.08;;
69047;SDS011;56119;50.118;8.642;2024-01-30T16:14:24;34.47;;;25.98;;
69047;SDS011;56119;50.118;8.642;2024-01-30T16:16:50;34.65;;;25.15;;
69047;SDS011;56119;50.118;8.642;2024-01-30T16:19:16;33.35;;;26.80;;
69047;SDS011;56119;50.118;8.642;2024-01-30T16:21:42;32.42;;;26.55;;
69047;SDS011;56119;50.118;8.642;2024-01-30T16:24:09;32.22;;;24.85;;
69047;SDS011;56119;50.118;8.642;2024-01-30T16:26:35;30.77;;;25.58;;
69047;SDS011;56119;50.118;8.642;2024-01-30T16:29:01;32.88;;;25.83;;
69047;SDS011;56119;50.118;8.642;2024-01-30T16:31:27;30.00;;;24.55;;
69047;SDS011;56119;50.118;8.642;2024-01-30T16:33:53;33.42;;;26.77;;
69047;SDS011;56119;50.118;8.642;2024-01-30T16:36:19;33.92;;;26.55;;
69047;SDS011;56119;50.118;8.642;2024-01-30T16:38:46;30.50;;;24.75;;
69047;SDS011;56119;50.118;8.642;2024-01-30T16:41:11;35.95;;;25.30;;
69047;SDS011;56119;50.118;8.642;2024-01-30T16:43:37;31.75;;;25.75;;
69047;SDS011;56119;50.118;8.642;2024-01-30T16:46:04;30.75;;;25.65;;
69047;SDS011;56119;50.118;8.642;2024-01-30T16:48:30;34.08;;;26.13;;
69047;SDS011;56119;50.118;8.642;2024-01-30T16:50:56;31.65;;;25.63;;
69047;SDS011;56119;50.118;8.642;2024-01-30T16:53:22;31.17;;;26.50;;
69047;SDS011;56119;50.118;8.642;2024-01-30T16:55:48;34.35;;;26.27;;
69047;SDS011;56119;50.118;8.642;2024-01-30T16:58:14;36.05;;;27.67;;
69047;SDS011;56119;50.118;8.642;2024-01-30T17:00:40;33.83;;;25.92;;
69047;SDS011;56119;50.118;8.642;2024-01-30T17:03:06;30.90;;;26.33;;
69047;SDS011;56119;50.118;8.642;2024-01-30T17:05:33;35.08;;;27.17;;
69047;SDS011;56119;50.118;8.642;2024-01-30T17:07:59;29.77;;;25.65;;
69047;SDS011;56119;50.118;8.642;2024-01-30T17:10:26;33.75;;;26.90;;
69047;SDS011;56119;50.118;8.642;2024-01-30T17:12:52;38.60;;;29.08;;
69047;SDS011;56119;50.118;8.642;2024-01-30T17:15:18;34.83;;;26.13;;
69047;SDS011;56119;50.118;8.642;2024-01-30T17:17:44;33.70;;;27.05;;
69047;SDS011;56119;50.118;8.642;2024-01-30T17:20:11;32.58;;;28.38;;
69047;SDS011;56119;50.118;8.642;2024-01-30T17:22:37;96.22;;;77.03;;
69047;SDS011;56119;50.118;8.642;2024-01-30T17:25:04;70.80;;;49.33;;
69047;SDS011;56119;50.118;8.642;2024-01-30T17:27:30;34.15;;;27.85;;
69047;SDS011;56119;50.118;8.642;2024-01-30T17:29:56;35.00;;;26.73;;
69047;SDS011;56119;50.118;8.642;2024-01-30T17:32:22;40.90;;;35.78;;
69047;SDS011;56119;50.118;8.642;2024-01-30T17:34:51;33.88;;;27.88;;
69047;SDS011;56119;50.118;8.642;2024-01-30T17:37:17;32.03;;;26.48;;
69047;SDS011;56119;50.118;8.642;2024-01-30T17:39:43;31.55;;;24.45;;
69047;SDS011;56119;50.118;8.642;2024-01-30T17:42:10;30.73;;;24.35;;
69047;SDS011;56119;50.118;8.642;2024-01-30T17:44:36;41.90;;;33.33;;
69047;SDS011;56119;50.118;8.642;2024-01-30T17:47:05;28.85;;;23.48;;
69047;SDS011;56119;50.118;8.642;2024-01-30T17:49:32;27.58;;;21.90;;
69047;SDS011;56119;50.118;8.642;2024-01-30T17:51:58;28.80;;;22.23;;
69047;SDS011;56119;50.118;8.642;2024-01-30T17:54:24;29.75;;;21.98;;
69047;SDS011;56119;50.118;8.642;2024-01-30T17:56:50;31.48;;;22.20;;
69047;SDS011;56119;50.118;8.642;2024-01-30T17:59:17;28.00;;;22.10;;
69047;SDS011;56119;50.118;8.642;2024-01-30T18:01:49;30.38;;;21.90;;
69047;SDS011;56119;50.118;8.642;2024-01-30T18:04:15;26.80;;;22.90;;
69047;SDS011;56119;50.118;8.642;2024-01-30T18:06:43;28.27;;;22.42;;
69047;SDS011;56119;50.118;8.642;2024-01-30T18:09:09;27.52;;;21.38;;
69047;SDS011;56119;50.118;8.642;2024-01-30T18:11:35;25.15;;;20.65;;
69047;SDS011;56119;50.118;8.642;2024-01-30T18:14:01;27.75;;;22.00;;
69047;SDS011;56119;50.118;8.642;2024-01-30T18:16:27;25.73;;;21.67;;
69047;SDS011;56119;50.118;8.642;2024-01-30T18:18:53;27.25;;;21.50;;
69047;SDS011;56119;50.118;8.642;2024-01-30T18:21:19;24.05;;;21.00;;
69047;SDS011;56119;50.118;8.642;2024-01-30T18:23:45;26.38;;;20.35;;
69047;SDS011;56119;50.118;8.642;2024-01-30T18:26:11;25.60;;;20.90;;
69047;SDS011;56119;50.118;8.642;2024-01-30T18:28:40;27.88;;;20.60;;
69047;SDS011;56119;50.118;8.642;2024-01-30T18:31:06;24.00;;;19.85;;
69047;SDS011;56119;50.118;8.642;2024-01-30T18:33:32;25.63;;;19.92;;
69047;SDS011;56119;50.118;8.642;2024-01-30T18:35:58;27.58;;;21.48;;
69047;SDS011;56119;50.118;8.642;2024-01-30T18:38:24;25.27;;;21.23;;
69047;SDS011;56119;50.118;8.642;2024-01-30T18:40:50;26.33;;;21.52;;
69047;SDS011;56119;50.118;8.642;2024-01-30T18:43:16;26.95;;;21.65;;
69047;SDS011;56119;50.118;8.642;2024-01-30T18:45:42;26.25;;;21.05;;
69047;SDS011;56119;50.118;8.642;2024-01-30T18:48:08;25.33;;;21.25;;
69047;SDS011;56119;50.118;8.642;2024-01-30T18:50:37;25.13;;;20.77;;
69047;SDS011;56119;50.118;8.642;2024-01-30T18:53:03;27.35;;;21.63;;
69047;SDS011;56119;50.118;8.642;2024-01-30T18:55:29;25.98;;;20.92;;
69047;SDS011;56119;50.118;8.642;2024-01-30T18:57:54;26.88;;;21.55;;
69047;SDS011;56119;50.118;8.642;2024-01-30T19:00:20;24.58;;;20.48;;
69047;SDS011;56119;50.118;8.642;2024-01-30T19:02:46;26.40;;;21.52;;
69047;SDS011;56119;50.118;8.642;2024-01-30T19:05:12;23.77;;;20.13;;
69047;SDS011;56119;50.118;8.642;2024-01-30T19:07:38;23.75;;;19.95;;
69047;SDS011;56119;50.118;8.642;2024-01-30T19:10:05;24.33;;;19.95;;
69047;SDS011;56119;50.118;8.642;2024-01-30T19:12:31;26.08;;;20.90;;
69047;SDS011;56119;50.118;8.642;2024-01-30T19:14:57;26.35;;;20.38;;
69047;SDS011;56119;50.118;8.642;2024-01-30T19:17:23;24.35;;;21.23;;
69047;SDS011;56119;50.118;8.642;2024-01-30T19:19:49;24.38;;;20.58;;
69047;SDS011;56119;50.118;8.642;2024-01-30T19:22:15;22.85;;;19.88;;
69047;SDS011;56119;50.118;8.642;2024-01-30T19:24:41;26.02;;;20.15;;
69047;SDS011;56119;50.118;8.642;2024-01-30T19:27:07;23.60;;;20.17;;
69047;SDS011;56119;50.118;8.642;2024-01-30T19:29:33;23.10;;;20.63;;
69047;SDS011;56119;50.118;8.642;2024-01-30T19:31:59;26.02;;;20.92;;
69047;SDS011;56119;50.118;8.642;2024-01-30T19:34:25;23.15;;;19.67;;
69047;SDS011;56119;50.118;8.642;2024-01-30T19:36:51;24.17;;;19.40;;
69047;SDS011;56119;50.118;8.642;2024-01-30T19:39:17;22.85;;;19.83;;
69047;SDS011;56119;50.118;8.642;2024-01-30T19:41:43;25.35;;;20.40;;
69047;SDS011;56119;50.118;8.642;2024-01-30T19:44:09;25.17;;;20.77;;
69047;SDS011;56119;50.118;8.642;2024-01-30T19:46:35;26.65;;;20.98;;
69047;SDS011;56119;50.118;8.642;2024-01-30T19:49:02;24.77;;;20.83;;
69047;SDS011;56119;50.118;8.642;2024-01-30T19:51:28;23.02;;;19.67;;
69047;SDS011;56119;50.118;8.642;2024-01-30T19:53:54;25.42;;;19.85;;
69047;SDS011;56119;50.118;8.642;2024-01-30T19:56:20;25.23;;;20.17;;
69047;SDS011;56119;50.118;8.642;2024-01-30T19:58:47;22.40;;;18.92;;
69047;SDS011;56119;50.118;8.642;2024-01-30T20:01:13;25.15;;;19.63;;
69047;SDS011;56119;50.118;8.642;2024-01-30T20:03:39;22.88;;;20.17;;
69047;SDS011;56119;50.118;8.642;2024-01-30T20:06:05;29.42;;;19.77;;
69047;SDS011;56119;50.118;8.642;2024-01-30T20:08:31;24.65;;;21.40;;
69047;SDS011;56119;50.118;8.642;2024-01-30T20:10:59;25.85;;;19.42;;
69047;SDS011;56119;50.118;8.642;2024-01-30T20:13:27;24.52;;;20.67;;
69047;SDS011;56119;50.118;8.642;2024-01-30T20:15:53;23.45;;;19.20;;
69047;SDS011;56119;50.118;8.642;2024-01-30T20:18:19;24.70;;;20.20;;
69047;SDS011;56119;50.118;8.642;2024-01-30T20:20:46;24.55;;;19.27;;
69047;SDS011;56119;50.118;8.642;2024-01-30T20:23:12;24.13;;;19.38;;
69047;SDS011;56119;50.118;8.642;2024-01-30T20:25:38;24.88;;;19.58;;
69047;SDS011;56119;50.118;8.642;2024-01-30T20:28:04;26.10;;;20.05;;
69047;SDS011;56119;50.118;8.642;2024-01-30T20:30:30;24.58;;;19.77;;
69047;SDS011;56119;50.118;8.642;2024-01-30T20:32:56;23.58;;;19.02;;
69047;SDS011;56119;50.118;8.642;2024-01-30T20:35:22;25.08;;;18.90;;
69047;SDS011;56119;50.118;8.642;2024-01-30T20:37:48;22.92;;;19.88;;
69047;SDS011;56119;50.118;8.642;2024-01-30T20:40:15;25.17;;;19.60;;
69047;SDS011;56119;50.118;8.642;2024-01-30T20:42:41;24.73;;;19.90;;
69047;SDS011;56119;50.118;8.642;2024-01-30T20:45:07;25.98;;;19.77;;
69047;SDS011;56119;50.118;8.642;2024-01-30T20:47:34;23.63;;;19.52;;
69047;SDS011;56119;50.118;8.642;2024-01-30T20:50:00;24.35;;;19.58;;
69047;SDS011;56119;50.118;8.642;2024-01-30T20:52:27;25.10;;;20.27;;
69047;SDS011;56119;50.118;8.642;2024-01-30T20:54:53;23.77;;;19.45;;
69047;SDS011;56119;50.118;8.642;2024-01-30T20:57:18;28.90;;;21.25;;
69047;SDS011;56119;50.118;8.642;2024-01-30T20:59:44;25.08;;;19.15;;
69047;SDS011;56119;50.118;8.642;2024-01-30T21:02:10;28.08;;;20.00;;
69047;SDS011;56119;50.118;8.642;2024-01-30T21:04:36;27.13;;;19.60;;
69047;SDS011;56119;50.118;8.642;2024-01-30T21:07:02;28.48;;;21.85;;
69047;SDS011;56119;50.118;8.642;2024-01-30T21:09:28;26.80;;;20.02;;
69047;SDS011;56119;50.118;8.642;2024-01-30T21:11:55;24.35;;;21.50;;
69047;SDS011;56119;50.118;8.642;2024-01-30T21:14:21;26.20;;;21.25;;
69047;SDS011;56119;50.118;8.642;2024-01-30T21:16:47;24.80;;;20.42;;
69047;SDS011;56119;50.118;8.642;2024-01-30T21:19:13;26.02;;;20.35;;
69047;SDS011;56119;50.118;8.642;2024-01-30T21:21:39;27.88;;;21.27;;
69047;SDS011;56119;50.118;8.642;2024-01-30T21:24:05;24.90;;;21.45;;
69047;SDS011;56119;50.118;8.642;2024-01-30T21:26:31;26.48;;;20.77;;
69047;SDS011;56119;50.118;8.642;2024-01-30T21:28:57;26.02;;;20.90;;
69047;SDS011;56119;50.118;8.642;2024-01-30T21:31:23;26.77;;;19.85;;
69047;SDS011;56119;50.118;8.642;2024-01-30T21:33:49;26.55;;;21.85;;
69047;SDS011;56119;50.118;8.642;2024-01-30T21:36:16;26.08;;;21.48;;
69047;SDS011;56119;50.118;8.642;2024-01-30T21:38:42;28.08;;;21.38;;
69047;SDS011;56119;50.118;8.642;2024-01-30T21:41:08;26.45;;;20.52;;
69047;SDS011;56119;50.118;8.642;2024-01-30T21:43:34;29.80;;;22.55;;
69047;SDS011;56119;50.118;8.642;2024-01-30T21:46:00;30.98;;;22.90;;
69047;SDS011;56119;50.118;8.642;2024-01-30T21:48:26;32.65;;;24.10;;
69047;SDS011;56119;50.118;8.642;2024-01-30T21:50:52;28.73;;;21.42;;
69047;SDS011;56119;50.118;8.642;2024-01-30T21:53:18;29.65;;;23.75;;
69047;SDS011;56119;50.118;8.642;2024-01-30T21:55:44;28.50;;;21.48;;
69047;SDS011;56119;50.118;8.642;2024-01-30T21:58:10;27.63;;;22.85;;
69047;SDS011;56119;50.118;8.642;2024-01-30T22:00:36;29.20;;;22.15;;
69047;SDS011;56119;50.118;8.642;2024-01-30T22:03:02;27.90;;;24.52;;
69047;SDS011;56119;50.118;8.642;2024-01-30T22:05:28;27.67;;;23.80;;
69047;SDS011;56119;50.118;8.642;2024-01-30T22:07:56;25.85;;;22.23;;
69047;SDS011;56119;50.118;8.642;2024-01-30T22:10:22;29.17;;;22.52;;
69047;SDS011;56119;50.118;8.642;2024-01-30T22:12:48;30.55;;;23.85;;
69047;SDS011;56119;50.118;8.642;2024-01-30T22:15:14;31.15;;;26.67;;
69047;SDS011;56119;50.118;8.642;2024-01-30T22:17:41;27.67;;;24.60;;
69047;SDS011;56119;50.118;8.642;2024-01-30T22:20:07;29.88;;;24.23;;
69047;SDS011;56119;50.118;8.642;2024-01-30T22:22:34;28.23;;;23.75;;
69047;SDS011;56119;50.118;8.642;2024-01-30T22:25:00;28.20;;;23.23;;
69047;SDS011;56119;50.118;8.642;2024-01-30T22:27:26;29.30;;;23.83;;
69047;SDS011;56119;50.118;8.642;2024-01-30T22:29:52;29.02;;;24.02;;
69047;SDS011;56119;50.118;8.642;2024-01-30T22:32:18;29.80;;;23.83;;
69047;SDS011;56119;50.118;8.642;2024-01-30T22:34:44;30.25;;;25.13;;
69047;SDS011;56119;50.118;8.642;2024-01-30T22:37:10;27.52;;;24.63;;
69047;SDS011;56119;50.118;8.642;2024-01-30T22:39:36;32.95;;;25.70;;
69047;SDS011;56119;50.118;8.642;2024-01-30T22:42:02;28.05;;;24.88;;
69047;SDS011;56119;50.118;8.642;2024-01-30T22:44:28;30.15;;;24.25;;
69047;SDS011;56119;50.118;8.642;2024-01-30T22:46:54;30.83;;;26.40;;
69047;SDS011;56119;50.118;8.642;2024-01-30T22:49:20;33.00;;;26.75;;
69047;SDS011;56119;50.118;8.642;2024-01-30T22:51:46;33.10;;;26.20;;
69047;SDS011;56119;50.118;8.642;2024-01-30T22:54:14;30.95;;;25.15;;
69047;SDS011;56119;50.118;8.642;2024-01-30T22:56:41;31.05;;;25.42;;
69047;SDS011;56119;50.118;8.642;2024-01-30T22:59:07;31.60;;;25.88;;
69047;SDS011;56119;50.118;8.642;2024-01-30T23:01:33;31.52;;;24.65;;
69047;SDS011;56119;50.118;8.642;2024-01-30T23:03:59;31.10;;;25.80;;
69047;SDS011;56119;50.118;8.642;2024-01-30T23:06:25;32.65;;;27.58;;
69047;SDS011;56119;50.118;8.642;2024-01-30T23:08:51;34.38;;;26.50;;
69047;SDS011;56119;50.118;8.642;2024-01-30T23:11:17;29.75;;;25.30;;
69047;SDS011;56119;50.118;8.642;2024-01-30T23:13:43;31.75;;;26.85;;
69047;SDS011;56119;50.118;8.642;2024-01-30T23:16:09;33.28;;;26.50;;
69047;SDS011;56119;50.118;8.642;2024-01-30T23:18:35;33.80;;;26.92;;
69047;SDS011;56119;50.118;8.642;2024-01-30T23:21:01;32.20;;;26.48;;
69047;SDS011;56119;50.118;8.642;2024-01-30T23:23:26;30.65;;;25.40;;
69047;SDS011;56119;50.118;8.642;2024-01-30T23:25:52;33.35;;;26.38;;
69047;SDS011;56119;50.118;8.642;2024-01-30T23:28:18;32.80;;;26.92;;
69047;SDS011;56119;50.118;8.642;2024-01-30T23:30:44;30.95;;;26.70;;
69047;SDS011;56119;50.118;8.642;2024-01-30T23:33:11;32.35;;;26.35;;
69047;SDS011;56119;50.118;8.642;2024-01-30T23:35:37;31.65;;;25.90;;
69047;SDS011;56119;50.118;8.642;2024-01-30T23:38:03;30.85;;;25.95;;
69047;SDS011;56119;50.118;8.642;2024-01-30T23:40:29;29.52;;;25.50;;
69047;SDS011;56119;50.118;8.642;2024-01-30T23:42:56;34.97;;;27.45;;
69047;SDS011;56119;50.118;8.642;2024-01-30T23:45:22;31.55;;;26.40;;
69047;SDS011;56119;50.118;8.642;2024-01-30T23:47:48;33.40;;;28.48;;
69047;SDS011;56119;50.118;8.642;2024-01-30T23:50:14;33.05;;;26.90;;
69047;SDS011;56119;50.118;8.642;2024-01-30T23:52:40;33.38;;;27.80;;
69047;SDS011;56119;50.118;8.642;2024-01-30T23:55:07;34.72;;;26.73;;
69047;SDS011;56119;50.118;8.642;2024-01-30T23:57:34;32.83;;;27.50;;
